sensor_id;sensor_type;location;lat;lon;timestamp;pressure;altitude;pressure_sealevel;temperature;humidity
48390;BME280;34643;47.964;7.982;2024-02-28T00:00:25;96612.34;;;19.15;55.55
48390;BME280;34643;47.964;7.982;2024-02-28T00:02:50;96612.47;;;19.14;55.53
48390;BME280;34643;47.964;7.982;2024-02-28T00:05:16;96606.03;;;19.18;55.39
48390;BME280;34643;47.964;7.982;2024-02-28T00:07:41;96607.56;;;19.21;55.47
48390;BME280;34643;47.964;7.982;2024-02-28T00:10:07;96605.66;;;19.23;55.40
48390;BME280;34643;47.964;7.982;2024-02-28T00:12:33;96600.91;;;19.16;55.30
48390;BME280;34643;47.964;7.982;2024-02-28T00:14:59;96599.00;;;19.18;55.28
48390;BME280;34643;47.964;7.982;2024-02-28T00:17:25;96605.06;;;19.19;55.24
48390;BME280;34643;47.964;7.982;2024-02-28T00:19:50;96597.09;;;19.21;55.27
48390;BME280;34643;47.964;7.982;2024-02-28T00:22:16;96602.59;;;19.17;55.28
48390;BME280;34643;47.964;7.982;2024-02-28T00:24:41;96595.56;;;19.18;55.35
48390;BME280;34643;47.964;7.982;2024-02-28T00:27:06;96599.28;;;19.15;55.41
48390;BME280;34643;47.964;7.982;2024-02-28T00:29:32;96601.03;;;19.15;55.43
48390;BME280;34643;47.964;7.982;2024-02-28T00:31:57;96603.66;;;19.15;55.46
48390;BME280;34643;47.964;7.982;2024-02-28T00:34:22;96603.41;;;19.18;55.40
48390;BME280;34643;47.964;7.982;2024-02-28T00:36:47;96601.75;;;19.17;55.25
48390;BME280;34643;47.964;7.982;2024-02-28T00:39:13;96607.81;;;19.17;55.25
48390;BME280;34643;47.964;7.982;2024-02-28T00:41:38;96605.91;;;19.19;55.53
48390;BME280;34643;47.964;7.982;2024-02-28T00:44:03;96614.31;;;19.23;55.35
48390;BME280;34643;47.964;7.982;2024-02-28T00:46:29;96609.09;;;19.23;55.38
48390;BME280;34643;47.964;7.982;2024-02-28T00:48:54;96610.59;;;19.26;55.28
48390;BME280;34643;47.964;7.982;2024-02-28T00:51:19;96610.47;;;19.27;55.25
48390;BME280;34643;47.964;7.982;2024-02-28T00:53:45;96602.63;;;19.27;55.07
48390;BME280;34643;47.964;7.982;2024-02-28T00:56:10;96607.81;;;19.17;55.10
48390;BME280;34643;47.964;7.982;2024-02-28T00:58:35;96599.41;;;19.14;55.18
48390;BME280;34643;47.964;7.982;2024-02-28T01:01:01;96607.25;;;19.14;55.10
48390;BME280;34643;47.964;7.982;2024-02-28T01:03:26;96613.56;;;19.11;55.22
48390;BME280;34643;47.964;7.982;2024-02-28T01:05:51;96609.41;;;19.09;55.13
48390;BME280;34643;47.964;7.982;2024-02-28T01:08:17;96606.81;;;19.09;55.27
48390;BME280;34643;47.964;7.982;2024-02-28T01:10:43;96617.13;;;19.10;55.20
48390;BME280;34643;47.964;7.982;2024-02-28T01:13:08;96611.91;;;19.10;55.06
48390;BME280;34643;47.964;7.982;2024-02-28T01:15:33;96617.25;;;19.09;55.10
48390;BME280;34643;47.964;7.982;2024-02-28T01:17:59;96618.22;;;19.08;55.19
48390;BME280;34643;47.964;7.982;2024-02-28T01:20:24;96617.25;;;19.09;55.24
48390;BME280;34643;47.964;7.982;2024-02-28T01:22:49;96617.59;;;19.15;55.12
48390;BME280;34643;47.964;7.982;2024-02-28T01:25:14;96616.50;;;19.18;55.18
48390;BME280;34643;47.964;7.982;2024-02-28T01:27:40;96628.63;;;19.19;55.16
48390;BME280;34643;47.964;7.982;2024-02-28T01:30:05;96615.66;;;19.17;55.15
48390;BME280;34643;47.964;7.982;2024-02-28T01:32:31;96619.22;;;19.16;55.23
48390;BME280;34643;47.964;7.982;2024-02-28T01:34:56;96621.03;;;19.16;55.19
48390;BME280;34643;47.964;7.982;2024-02-28T01:37:22;96625.31;;;19.17;55.14
48390;BME280;34643;47.964;7.982;2024-02-28T01:39:47;96620.91;;;19.17;54.98
48390;BME280;34643;47.964;7.982;2024-02-28T01:42:13;96617.47;;;19.17;54.98
48390;BME280;34643;47.964;7.982;2024-02-28T01:44:45;96620.91;;;19.17;55.07
48390;BME280;34643;47.964;7.982;2024-02-28T01:47:12;96620.91;;;19.17;54.99
48390;BME280;34643;47.964;7.982;2024-02-28T01:49:37;96624.47;;;19.16;54.77
48390;BME280;34643;47.964;7.982;2024-02-28T01:52:03;96626.13;;;19.17;55.03
48390;BME280;34643;47.964;7.982;2024-02-28T01:54:29;96630.38;;;19.18;55.02
48390;BME280;34643;47.964;7.982;2024-02-28T01:56:55;96632.44;;;19.15;54.93
48390;BME280;34643;47.964;7.982;2024-02-28T01:59:20;96631.88;;;19.11;55.19
48390;BME280;34643;47.964;7.982;2024-02-28T02:01:48;96631.88;;;19.11;55.31
48390;BME280;34643;47.964;7.982;2024-02-28T02:04:13;96637.09;;;19.11;55.09
48390;BME280;34643;47.964;7.982;2024-02-28T02:06:38;96643.88;;;19.14;55.23
48390;BME280;34643;47.964;7.982;2024-02-28T02:09:07;96636.97;;;19.13;55.08
48390;BME280;34643;47.964;7.982;2024-02-28T02:11:32;96641.38;;;19.12;55.08
48390;BME280;34643;47.964;7.982;2024-02-28T02:13:57;96648.53;;;19.10;54.97
48390;BME280;34643;47.964;7.982;2024-02-28T02:16:23;96648.41;;;19.12;54.98
48390;BME280;34643;47.964;7.982;2024-02-28T02:18:51;96657.09;;;19.12;55.21
48390;BME280;34643;47.964;7.982;2024-02-28T02:21:17;96656.50;;;19.09;54.95
48390;BME280;34643;47.964;7.982;2024-02-28T02:23:43;96661.63;;;19.10;55.11
48390;BME280;34643;47.964;7.982;2024-02-28T02:26:08;96665.19;;;19.09;55.24
48390;BME280;34643;47.964;7.982;2024-02-28T02:28:33;96664.34;;;19.09;55.14
48390;BME280;34643;47.964;7.982;2024-02-28T02:30:59;96666.16;;;19.08;55.11
48390;BME280;34643;47.964;7.982;2024-02-28T02:33:24;96659.25;;;19.07;55.20
48390;BME280;34643;47.964;7.982;2024-02-28T02:35:49;96666.28;;;19.07;55.29
48390;BME280;34643;47.964;7.982;2024-02-28T02:38:15;96671.50;;;19.07;55.12
48390;BME280;34643;47.964;7.982;2024-02-28T02:40:40;96674.25;;;19.05;55.22
48390;BME280;34643;47.964;7.982;2024-02-28T02:43:05;96673.44;;;19.05;55.17
48390;BME280;34643;47.964;7.982;2024-02-28T02:45:30;96674.25;;;19.05;55.14
48390;BME280;34643;47.964;7.982;2024-02-28T02:47:56;96671.75;;;19.04;55.24
48390;BME280;34643;47.964;7.982;2024-02-28T02:50:21;96670.94;;;19.03;55.10
48390;BME280;34643;47.964;7.982;2024-02-28T02:52:46;96675.19;;;19.04;55.09
48390;BME280;34643;47.964;7.982;2024-02-28T02:55:12;96667.22;;;19.06;55.06
48390;BME280;34643;47.964;7.982;2024-02-28T02:57:37;96672.56;;;19.04;55.22
48390;BME280;34643;47.964;7.982;2024-02-28T03:00:02;96681.41;;;19.03;55.14
48390;BME280;34643;47.964;7.982;2024-02-28T03:02:28;96682.22;;;19.04;55.00
48390;BME280;34643;47.964;7.982;2024-02-28T03:04:53;96690.06;;;19.04;55.18
48390;BME280;34643;47.964;7.982;2024-02-28T03:07:18;96693.50;;;19.04;55.16
48390;BME280;34643;47.964;7.982;2024-02-28T03:09:44;96695.16;;;19.05;55.13
48390;BME280;34643;47.964;7.982;2024-02-28T03:12:09;96699.72;;;19.03;55.23
48390;BME280;34643;47.964;7.982;2024-02-28T03:14:34;96699.72;;;19.03;55.16
48390;BME280;34643;47.964;7.982;2024-02-28T03:17:00;96703.97;;;19.04;55.08
48390;BME280;34643;47.964;7.982;2024-02-28T03:19:25;96705.63;;;19.05;55.16
48390;BME280;34643;47.964;7.982;2024-02-28T03:21:50;96709.06;;;19.06;55.12
48390;BME280;34643;47.964;7.982;2024-02-28T03:24:16;96711.81;;;19.04;55.22
48390;BME280;34643;47.964;7.982;2024-02-28T03:26:42;96711.19;;;19.12;55.19
48390;BME280;34643;47.964;7.982;2024-02-28T03:29:08;96714.31;;;19.06;55.15
48390;BME280;34643;47.964;7.982;2024-02-28T03:31:33;96712.78;;;19.03;55.17
48390;BME280;34643;47.964;7.982;2024-02-28T03:33:59;96723.59;;;19.10;55.24
48390;BME280;34643;47.964;7.982;2024-02-28T03:36:24;96723.81;;;19.07;55.05
48390;BME280;34643;47.964;7.982;2024-02-28T03:38:50;96726.56;;;19.05;55.24
48390;BME280;34643;47.964;7.982;2024-02-28T03:41:15;96724.88;;;19.04;55.23
48390;BME280;34643;47.964;7.982;2024-02-28T03:43:40;96729.19;;;19.05;55.17
48390;BME280;34643;47.964;7.982;2024-02-28T03:46:05;96735.09;;;19.07;55.35
48390;BME280;34643;47.964;7.982;2024-02-28T03:48:31;96727.25;;;19.07;55.28
48390;BME280;34643;47.964;7.982;2024-02-28T03:50:56;96734.88;;;19.10;55.16
48390;BME280;34643;47.964;7.982;2024-02-28T03:53:21;96743.41;;;19.12;55.30
48390;BME280;34643;47.964;7.982;2024-02-28T03:55:46;96743.41;;;19.12;55.22
48390;BME280;34643;47.964;7.982;2024-02-28T03:58:12;96739.84;;;19.13;55.36
48390;BME280;34643;47.964;7.982;2024-02-28T04:00:37;96741.25;;;19.17;55.32
48390;BME280;34643;47.964;7.982;2024-02-28T04:03:03;96739.84;;;19.13;55.33
48390;BME280;34643;47.964;7.982;2024-02-28T04:05:28;96737.94;;;19.15;55.18
48390;BME280;34643;47.964;7.982;2024-02-28T04:07:54;96733.53;;;19.16;55.46
48390;BME280;34643;47.964;7.982;2024-02-28T04:10:19;96736.38;;;19.13;55.18
48390;BME280;34643;47.964;7.982;2024-02-28T04:12:44;96732.72;;;19.15;55.07
48390;BME280;34643;47.964;7.982;2024-02-28T04:15:10;96737.25;;;19.13;55.20
48390;BME280;34643;47.964;7.982;2024-02-28T04:17:36;96734.63;;;19.13;55.15
48390;BME280;34643;47.964;7.982;2024-02-28T04:20:01;96739.84;;;19.13;55.07
48390;BME280;34643;47.964;7.982;2024-02-28T04:22:29;96742.06;;;19.18;55.14
48390;BME280;34643;47.964;7.982;2024-02-28T04:24:55;96740.69;;;19.14;55.17
48390;BME280;34643;47.964;7.982;2024-02-28T04:27:21;96739.53;;;19.07;55.45
48390;BME280;34643;47.964;7.982;2024-02-28T04:29:46;96749.28;;;19.05;55.51
48390;BME280;34643;47.964;7.982;2024-02-28T04:32:11;96750.09;;;19.05;55.50
48390;BME280;34643;47.964;7.982;2024-02-28T04:34:36;96753.88;;;19.12;55.25
48390;BME280;34643;47.964;7.982;2024-02-28T04:37:02;96757.44;;;19.11;55.32
48390;BME280;34643;47.964;7.982;2024-02-28T04:39:27;96772.19;;;19.12;55.37
48390;BME280;34643;47.964;7.982;2024-02-28T04:41:52;96770.41;;;19.13;55.44
48390;BME280;34643;47.964;7.982;2024-02-28T04:44:17;96777.66;;;19.09;55.38
48390;BME280;34643;47.964;7.982;2024-02-28T04:46:43;96777.66;;;19.09;55.55
48390;BME280;34643;47.964;7.982;2024-02-28T04:49:08;96775.63;;;19.13;55.46
48390;BME280;34643;47.964;7.982;2024-02-28T04:51:34;96771.94;;;19.15;55.36
48390;BME280;34643;47.964;7.982;2024-02-28T04:53:59;96778.81;;;19.16;55.47
48390;BME280;34643;47.964;7.982;2024-02-28T04:56:25;96782.28;;;19.17;55.58
48390;BME280;34643;47.964;7.982;2024-02-28T04:58:50;96781.19;;;19.19;55.63
48390;BME280;34643;47.964;7.982;2024-02-28T05:01:16;96785.50;;;19.21;55.47
48390;BME280;34643;47.964;7.982;2024-02-28T05:03:41;96781.66;;;19.25;55.52
48390;BME280;34643;47.964;7.982;2024-02-28T05:06:06;96785.09;;;19.25;55.62
48390;BME280;34643;47.964;7.982;2024-02-28T05:08:32;96792.81;;;19.27;55.61
48390;BME280;34643;47.964;7.982;2024-02-28T05:10:57;96795.31;;;19.28;55.49
48390;BME280;34643;47.964;7.982;2024-02-28T05:13:22;96791.59;;;19.31;55.63
48390;BME280;34643;47.964;7.982;2024-02-28T05:15:49;96795.91;;;19.32;55.64
48390;BME280;34643;47.964;7.982;2024-02-28T05:18:14;96807.19;;;19.32;55.68
48390;BME280;34643;47.964;7.982;2024-02-28T05:20:40;96798.41;;;19.33;55.51
48390;BME280;34643;47.964;7.982;2024-02-28T05:23:05;96797.56;;;19.33;55.76
48390;BME280;34643;47.964;7.982;2024-02-28T05:25:30;96794.09;;;19.32;56.13
48390;BME280;34643;47.964;7.982;2024-02-28T05:27:56;96794.81;;;19.34;56.62
48390;BME280;34643;47.964;7.982;2024-02-28T05:30:21;96794.69;;;19.36;56.60
48390;BME280;34643;47.964;7.982;2024-02-28T05:32:46;96802.28;;;19.39;57.39
48390;BME280;34643;47.964;7.982;2024-02-28T05:35:12;96805.47;;;19.43;57.99
48390;BME280;34643;47.964;7.982;2024-02-28T05:37:37;96807.84;;;19.46;51.61
48390;BME280;34643;47.964;7.982;2024-02-28T05:40:02;96804.09;;;19.06;47.92
48390;BME280;34643;47.964;7.982;2024-02-28T05:42:28;96808.41;;;18.73;46.19
48390;BME280;34643;47.964;7.982;2024-02-28T05:44:53;96804.19;;;18.50;44.87
48390;BME280;34643;47.964;7.982;2024-02-28T05:47:19;96821.78;;;18.25;44.66
48390;BME280;34643;47.964;7.982;2024-02-28T05:49:44;96821.28;;;18.20;44.72
48390;BME280;34643;47.964;7.982;2024-02-28T05:52:10;96821.88;;;18.12;45.00
48390;BME280;34643;47.964;7.982;2024-02-28T05:54:37;96819.88;;;18.27;46.61
48390;BME280;34643;47.964;7.982;2024-02-28T05:57:02;96820.13;;;18.35;49.22
48390;BME280;34643;47.964;7.982;2024-02-28T05:59:27;96826.63;;;18.41;49.62
48390;BME280;34643;47.964;7.982;2024-02-28T06:01:53;96826.25;;;18.46;49.87
48390;BME280;34643;47.964;7.982;2024-02-28T06:04:18;96827.00;;;18.48;50.03
48390;BME280;34643;47.964;7.982;2024-02-28T06:06:43;96834.56;;;18.51;50.36
48390;BME280;34643;47.964;7.982;2024-02-28T06:09:08;96841.00;;;18.58;50.39
48390;BME280;34643;47.964;7.982;2024-02-28T06:11:34;96838.13;;;18.61;50.45
48390;BME280;34643;47.964;7.982;2024-02-28T06:13:59;96847.88;;;18.59;50.59
48390;BME280;34643;47.964;7.982;2024-02-28T06:16:24;96854.41;;;18.65;50.87
48390;BME280;34643;47.964;7.982;2024-02-28T06:18:50;96849.91;;;18.67;50.67
48390;BME280;34643;47.964;7.982;2024-02-28T06:21:15;96856.91;;;18.66;50.80
48390;BME280;34643;47.964;7.982;2024-02-28T06:23:40;96863.69;;;18.69;50.95
48390;BME280;34643;47.964;7.982;2024-02-28T06:26:06;96865.13;;;18.73;51.05
48390;BME280;34643;47.964;7.982;2024-02-28T06:28:31;96864.84;;;18.76;50.99
48390;BME280;34643;47.964;7.982;2024-02-28T06:30:57;96869.16;;;18.77;51.23
48390;BME280;34643;47.964;7.982;2024-02-28T06:33:22;96870.81;;;18.78;51.33
48390;BME280;34643;47.964;7.982;2024-02-28T06:35:48;96876.75;;;18.80;51.30
48390;BME280;34643;47.964;7.982;2024-02-28T06:38:13;96878.31;;;18.83;51.20
48390;BME280;34643;47.964;7.982;2024-02-28T06:40:39;96885.41;;;18.80;51.41
48390;BME280;34643;47.964;7.982;2024-02-28T06:43:04;96886.03;;;18.84;51.13
48390;BME280;34643;47.964;7.982;2024-02-28T06:45:30;96887.72;;;18.85;51.15
48390;BME280;34643;47.964;7.982;2024-02-28T06:47:55;96889.47;;;18.85;51.32
48390;BME280;34643;47.964;7.982;2024-02-28T06:50:20;96890.34;;;18.85;51.41
48390;BME280;34643;47.964;7.982;2024-02-28T06:52:46;96887.94;;;18.82;51.61
48390;BME280;34643;47.964;7.982;2024-02-28T06:55:11;96893.06;;;18.84;51.44
48390;BME280;34643;47.964;7.982;2024-02-28T06:57:37;96892.09;;;18.85;51.42
48390;BME280;34643;47.964;7.982;2024-02-28T07:00:04;96899.13;;;18.84;51.48
48390;BME280;34643;47.964;7.982;2024-02-28T07:02:30;96906.84;;;18.86;51.56
48390;BME280;34643;47.964;7.982;2024-02-28T07:04:55;96906.84;;;18.86;51.49
48390;BME280;34643;47.964;7.982;2024-02-28T07:07:20;96914.00;;;18.84;51.63
48390;BME280;34643;47.964;7.982;2024-02-28T07:09:46;96918.13;;;18.86;51.57
48390;BME280;34643;47.964;7.982;2024-02-28T07:12:11;96914.69;;;18.86;51.50
48390;BME280;34643;47.964;7.982;2024-02-28T07:14:37;96922.44;;;18.87;51.58
48390;BME280;34643;47.964;7.982;2024-02-28T07:17:03;96918.25;;;18.85;51.43
48390;BME280;34643;47.964;7.982;2024-02-28T07:19:28;96909.69;;;18.83;51.66
48390;BME280;34643;47.964;7.982;2024-02-28T07:21:54;96915.63;;;18.85;51.63
48390;BME280;34643;47.964;7.982;2024-02-28T07:24:19;96914.94;;;18.83;51.74
48390;BME280;34643;47.964;7.982;2024-02-28T07:26:45;96920.25;;;18.81;51.64
48390;BME280;34643;47.964;7.982;2024-02-28T07:29:11;96928.09;;;18.81;51.77
48390;BME280;34643;47.964;7.982;2024-02-28T07:31:36;96930.63;;;18.83;51.74
48390;BME280;34643;47.964;7.982;2024-02-28T07:34:02;96929.88;;;18.80;51.81
48390;BME280;34643;47.964;7.982;2024-02-28T07:36:28;96928.19;;;18.79;51.61
48390;BME280;34643;47.964;7.982;2024-02-28T07:38:53;96939.50;;;18.80;51.77
48390;BME280;34643;47.964;7.982;2024-02-28T07:41:19;96940.34;;;18.80;51.73
48390;BME280;34643;47.964;7.982;2024-02-28T07:43:44;96944.03;;;18.78;51.78
48390;BME280;34643;47.964;7.982;2024-02-28T07:46:09;96937.94;;;18.77;51.84
48390;BME280;34643;47.964;7.982;2024-02-28T07:48:36;96951.03;;;18.77;51.94
48390;BME280;34643;47.964;7.982;2024-02-28T07:51:04;96944.03;;;18.78;51.80
48390;BME280;34643;47.964;7.982;2024-02-28T07:53:29;96940.69;;;18.76;51.87
48390;BME280;34643;47.964;7.982;2024-02-28T07:55:55;96947.69;;;18.75;51.77
48390;BME280;34643;47.964;7.982;2024-02-28T07:58:20;96945.91;;;18.76;51.83
48390;BME280;34643;47.964;7.982;2024-02-28T08:00:46;96949.59;;;18.73;51.88
48390;BME280;34643;47.964;7.982;2024-02-28T08:03:11;96959.13;;;18.74;51.93
48390;BME280;34643;47.964;7.982;2024-02-28T08:05:37;96952.94;;;18.75;51.85
48390;BME280;34643;47.964;7.982;2024-02-28T08:08:07;96960.78;;;18.75;51.85
48390;BME280;34643;47.964;7.982;2024-02-28T08:10:33;96961.59;;;18.76;51.81
48390;BME280;34643;47.964;7.982;2024-02-28T08:12:58;96958.16;;;18.75;52.02
48390;BME280;34643;47.964;7.982;2024-02-28T08:15:24;96953.75;;;18.76;51.85
48390;BME280;34643;47.964;7.982;2024-02-28T08:17:49;96962.47;;;18.76;51.88
48390;BME280;34643;47.964;7.982;2024-02-28T08:20:14;96964.22;;;18.76;52.03
48390;BME280;34643;47.964;7.982;2024-02-28T08:22:40;96964.22;;;18.76;51.90
48390;BME280;34643;47.964;7.982;2024-02-28T08:25:05;96970.41;;;18.75;51.83
48390;BME280;34643;47.964;7.982;2024-02-28T08:27:30;96964.34;;;18.74;52.08
48390;BME280;34643;47.964;7.982;2024-02-28T08:29:56;96976.47;;;18.75;52.11
48390;BME280;34643;47.964;7.982;2024-02-28T08:32:21;96967.81;;;18.75;52.18
48390;BME280;34643;47.964;7.982;2024-02-28T08:34:46;96973.13;;;18.73;52.07
48390;BME280;34643;47.964;7.982;2024-02-28T08:37:12;96973.03;;;18.75;52.10
48390;BME280;34643;47.964;7.982;2024-02-28T08:39:37;96974.81;;;18.74;52.06
48390;BME280;34643;47.964;7.982;2024-02-28T08:42:03;96982.78;;;18.73;52.23
48390;BME280;34643;47.964;7.982;2024-02-28T08:44:28;96982.78;;;18.73;52.11
48390;BME280;34643;47.964;7.982;2024-02-28T08:46:53;96985.41;;;18.73;52.11
48390;BME280;34643;47.964;7.982;2024-02-28T08:49:19;96984.44;;;18.74;52.13
48390;BME280;34643;47.964;7.982;2024-02-28T08:51:44;96986.22;;;18.73;52.18
48390;BME280;34643;47.964;7.982;2024-02-28T08:54:09;96995.00;;;18.72;52.29
48390;BME280;34643;47.964;7.982;2024-02-28T08:56:35;96994.06;;;18.73;52.26
48390;BME280;34643;47.964;7.982;2024-02-28T08:59:00;96987.03;;;18.74;52.28
48390;BME280;34643;47.964;7.982;2024-02-28T09:01:25;96987.16;;;18.72;52.34
48390;BME280;34643;47.964;7.982;2024-02-28T09:03:50;96985.50;;;18.71;52.34
48390;BME280;34643;47.964;7.982;2024-02-28T09:06:16;96993.25;;;18.73;52.23
48390;BME280;34643;47.964;7.982;2024-02-28T09:08:41;96996.69;;;18.73;52.16
48390;BME280;34643;47.964;7.982;2024-02-28T09:11:07;96989.78;;;18.72;52.30
48390;BME280;34643;47.964;7.982;2024-02-28T09:13:32;96994.19;;;18.72;52.02
48390;BME280;34643;47.964;7.982;2024-02-28T09:15:58;96990.72;;;18.71;52.33
48390;BME280;34643;47.964;7.982;2024-02-28T09:18:23;96995.13;;;18.71;52.18
48390;BME280;34643;47.964;7.982;2024-02-28T09:20:48;96990.72;;;18.71;52.34
48390;BME280;34643;47.964;7.982;2024-02-28T09:23:14;96988.13;;;18.71;52.35
48390;BME280;34643;47.964;7.982;2024-02-28T09:25:39;96990.72;;;18.71;52.18
48390;BME280;34643;47.964;7.982;2024-02-28T09:28:05;96995.13;;;18.71;52.33
48390;BME280;34643;47.964;7.982;2024-02-28T09:30:30;97003.91;;;18.70;52.13
48390;BME280;34643;47.964;7.982;2024-02-28T09:32:56;96996.19;;;18.68;52.32
48390;BME280;34643;47.964;7.982;2024-02-28T09:35:21;97003.09;;;18.69;52.28
48390;BME280;34643;47.964;7.982;2024-02-28T09:37:47;96997.00;;;18.69;52.15
48390;BME280;34643;47.964;7.982;2024-02-28T09:40:12;96998.81;;;18.68;52.20
48390;BME280;34643;47.964;7.982;2024-02-28T09:42:37;96997.88;;;18.69;52.22
48390;BME280;34643;47.964;7.982;2024-02-28T09:45:03;97002.25;;;18.69;52.21
48390;BME280;34643;47.964;7.982;2024-02-28T09:47:29;97003.31;;;18.66;52.43
48390;BME280;34643;47.964;7.982;2024-02-28T09:49:54;96999.78;;;18.67;52.44
48390;BME280;34643;47.964;7.982;2024-02-28T09:52:23;96998.81;;;18.68;52.28
48390;BME280;34643;47.964;7.982;2024-02-28T09:54:49;96997.88;;;18.69;52.43
48390;BME280;34643;47.964;7.982;2024-02-28T09:57:14;96994.41;;;18.69;52.43
48390;BME280;34643;47.964;7.982;2024-02-28T09:59:40;97003.91;;;18.70;52.42
48390;BME280;34643;47.964;7.982;2024-02-28T10:02:06;96997.88;;;18.69;52.47
48390;BME280;34643;47.964;7.982;2024-02-28T10:04:34;96990.13;;;18.68;52.52
48390;BME280;34643;47.964;7.982;2024-02-28T10:07:10;96990.03;;;18.69;52.50
48390;BME280;34643;47.964;7.982;2024-02-28T10:09:37;96989.06;;;18.70;52.56
48390;BME280;34643;47.964;7.982;2024-02-28T10:12:03;96984.69;;;18.71;52.41
48390;BME280;34643;47.964;7.982;2024-02-28T10:14:28;96992.63;;;18.69;52.61
48390;BME280;34643;47.964;7.982;2024-02-28T10:16:54;96988.22;;;18.70;52.54
48390;BME280;34643;47.964;7.982;2024-02-28T10:19:20;96991.66;;;18.70;52.56
48390;BME280;34643;47.964;7.982;2024-02-28T10:21:46;96977.78;;;18.70;52.57
48390;BME280;34643;47.964;7.982;2024-02-28T10:24:11;96989.06;;;18.70;52.75
48390;BME280;34643;47.964;7.982;2024-02-28T10:26:44;96990.72;;;18.71;52.61
48390;BME280;34643;47.964;7.982;2024-02-28T10:29:10;96992.38;;;18.72;52.64
48390;BME280;34643;47.964;7.982;2024-02-28T10:31:35;97000.22;;;18.72;52.74
48390;BME280;34643;47.964;7.982;2024-02-28T10:34:01;96995.97;;;18.71;52.76
48390;BME280;34643;47.964;7.982;2024-02-28T10:36:27;96996.78;;;18.72;52.68
48390;BME280;34643;47.964;7.982;2024-02-28T10:38:55;96997.63;;;18.72;52.74
48390;BME280;34643;47.964;7.982;2024-02-28T10:41:21;97009.03;;;18.71;52.88
48390;BME280;34643;47.964;7.982;2024-02-28T10:43:46;97013.31;;;18.72;52.91
48390;BME280;34643;47.964;7.982;2024-02-28T10:46:14;97007.25;;;18.72;52.86
48390;BME280;34643;47.964;7.982;2024-02-28T10:48:39;97000.38;;;18.71;52.97
48390;BME280;34643;47.964;7.982;2024-02-28T10:51:04;97003.81;;;18.71;53.01
48390;BME280;34643;47.964;7.982;2024-02-28T10:53:41;97002.13;;;18.70;52.93
48390;BME280;34643;47.964;7.982;2024-02-28T10:56:10;97004.75;;;18.70;52.86
48390;BME280;34643;47.964;7.982;2024-02-28T10:58:36;97006.31;;;18.73;52.87
48390;BME280;34643;47.964;7.982;2024-02-28T11:01:02;97002.97;;;18.71;52.92
48390;BME280;34643;47.964;7.982;2024-02-28T11:03:28;97004.63;;;18.72;53.04
48390;BME280;34643;47.964;7.982;2024-02-28T11:05:53;96999.28;;;18.73;52.85
48390;BME280;34643;47.964;7.982;2024-02-28T11:08:22;96994.88;;;18.74;52.89
48390;BME280;34643;47.964;7.982;2024-02-28T11:10:54;97002.63;;;18.75;52.89
48390;BME280;34643;47.964;7.982;2024-02-28T11:13:23;96998.22;;;18.76;52.79
48390;BME280;34643;47.964;7.982;2024-02-28T11:15:49;97000.13;;;18.74;52.95
48390;BME280;34643;47.964;7.982;2024-02-28T11:18:14;96996.56;;;18.75;53.15
48390;BME280;34643;47.964;7.982;2024-02-28T11:20:39;96996.56;;;18.75;52.92
48390;BME280;34643;47.964;7.982;2024-02-28T11:23:08;97000.00;;;18.75;52.87
48390;BME280;34643;47.964;7.982;2024-02-28T11:25:34;97001.91;;;18.73;52.92
48390;BME280;34643;47.964;7.982;2024-02-28T11:27:59;96996.56;;;18.75;53.10
48390;BME280;34643;47.964;7.982;2024-02-28T11:30:25;97000.13;;;18.74;53.08
48390;BME280;34643;47.964;7.982;2024-02-28T11:32:54;96999.28;;;18.73;52.93
48390;BME280;34643;47.964;7.982;2024-02-28T11:35:19;97006.31;;;18.73;52.98
48390;BME280;34643;47.964;7.982;2024-02-28T11:37:45;97006.41;;;18.71;53.11
48390;BME280;34643;47.964;7.982;2024-02-28T11:40:11;97005.47;;;18.72;53.15
48390;BME280;34643;47.964;7.982;2024-02-28T11:42:37;97000.22;;;18.72;53.04
48390;BME280;34643;47.964;7.982;2024-02-28T11:45:03;96999.41;;;18.72;53.10
48390;BME280;34643;47.964;7.982;2024-02-28T11:47:31;96999.28;;;18.73;53.04
48390;BME280;34643;47.964;7.982;2024-02-28T11:50:00;96994.06;;;18.73;53.13
48390;BME280;34643;47.964;7.982;2024-02-28T11:52:26;97002.84;;;18.72;53.25
48390;BME280;34643;47.964;7.982;2024-02-28T11:54:52;96998.47;;;18.73;53.21
48390;BME280;34643;47.964;7.982;2024-02-28T11:57:19;96999.28;;;18.73;53.12
48390;BME280;34643;47.964;7.982;2024-02-28T11:59:44;97006.19;;;18.74;53.17
48390;BME280;34643;47.964;7.982;2024-02-28T12:02:13;97000.13;;;18.74;53.09
48390;BME280;34643;47.964;7.982;2024-02-28T12:04:39;97008.81;;;18.74;53.11
48390;BME280;34643;47.964;7.982;2024-02-28T12:07:05;97010.56;;;18.74;53.09
48390;BME280;34643;47.964;7.982;2024-02-28T12:09:30;97009.63;;;18.75;53.11
48390;BME280;34643;47.964;7.982;2024-02-28T12:11:55;97009.75;;;18.73;52.98
48390;BME280;34643;47.964;7.982;2024-02-28T12:14:21;96996.78;;;18.72;53.23
48390;BME280;34643;47.964;7.982;2024-02-28T12:16:46;97003.69;;;18.73;53.00
48390;BME280;34643;47.964;7.982;2024-02-28T12:19:13;97005.22;;;18.64;53.34
48390;BME280;34643;47.964;7.982;2024-02-28T12:21:40;97001.78;;;18.64;53.25
48390;BME280;34643;47.964;7.982;2024-02-28T12:24:07;96994.78;;;18.64;53.44
48390;BME280;34643;47.964;7.982;2024-02-28T12:26:32;96991.44;;;18.62;53.30
48390;BME280;34643;47.964;7.982;2024-02-28T12:28:57;96997.28;;;18.66;53.37
48390;BME280;34643;47.964;7.982;2024-02-28T12:31:23;96986.81;;;18.66;53.41
48390;BME280;34643;47.964;7.982;2024-02-28T12:33:48;96989.53;;;18.64;53.56
48390;BME280;34643;47.964;7.982;2024-02-28T12:36:14;96994.53;;;18.67;53.61
48390;BME280;34643;47.964;7.982;2024-02-28T12:38:39;96991.66;;;18.70;53.48
48390;BME280;34643;47.964;7.982;2024-02-28T12:41:06;96986.44;;;18.70;53.53
48390;BME280;34643;47.964;7.982;2024-02-28T12:43:31;96983.59;;;18.73;53.65
48390;BME280;34643;47.964;7.982;2024-02-28T12:45:58;96978.38;;;18.73;53.59
48390;BME280;34643;47.964;7.982;2024-02-28T12:48:23;96985.28;;;18.74;53.64
48390;BME280;34643;47.964;7.982;2024-02-28T12:50:48;96983.50;;;18.75;53.54